Time;durP1;ratioP1;P1;durP2;ratioP2;P2;SDS_P1;SDS_P2;PMS_P1;PMS_P2;Temp;Humidity;BMP_temperature;BMP_pressure;BME280_temperature;BME280_humidity;BME280_pressure;Samples;Min_cycle;Max_cycle;Signal;HPM_P1;HPM_P2
2023/01/08 00:00:14;;;;;;;4.97;4.47;;;11.00;99.90;;;;;;5105570;28;20229;-78
2023/01/08 00:02:48;;;;;;;4.93;4.38;;;11.00;99.90;;;;;;5093241;28;20348;-77
2023/01/08 00:05:32;;;;;;;4.43;4.00;;;11.00;99.90;;;;;;5106469;28;20231;-78
2023/01/08 00:07:59;;;;;;;4.93;4.53;;;11.00;99.90;;;;;;5093394;28;20215;-78
2023/01/08 00:10:37;;;;;;;4.70;4.30;;;10.90;99.90;;;;;;5110694;28;20230;-78
2023/01/08 00:13:05;;;;;;;5.30;4.80;;;10.90;99.90;;;;;;5107883;28;20242;-77
2023/01/08 00:15:36;;;;;;;6.00;5.28;;;10.90;99.90;;;;;;5104194;28;20227;-78
2023/01/08 00:18:04;;;;;;;7.65;6.63;;;10.90;99.90;;;;;;5105027;28;20704;-78
2023/01/08 00:20:31;;;;;;;5.53;5.03;;;10.90;99.90;;;;;;5094115;28;20223;-79
2023/01/08 00:26:39;;;;;;;4.97;4.47;;;10.80;99.90;;;;;;5088639;28;20246;-77
2023/01/08 00:29:11;;;;;;;5.97;5.45;;;10.80;99.90;;;;;;5097778;28;20231;-78
2023/01/08 00:31:44;;;;;;;4.45;4.05;;;10.80;99.90;;;;;;5100103;28;20254;-79
2023/01/08 00:34:13;;;;;;;5.40;4.75;;;10.80;99.90;;;;;;5087310;28;20601;-78
2023/01/08 00:36:40;;;;;;;4.90;4.38;;;10.70;99.90;;;;;;5099396;28;20247;-77
2023/01/08 00:39:07;;;;;;;4.40;4.00;;;10.70;99.90;;;;;;5085503;28;20285;-77
2023/01/08 00:41:43;;;;;;;4.20;3.90;;;10.70;99.90;;;;;;5098339;28;20314;-77
2023/01/08 00:44:16;;;;;;;4.70;4.30;;;10.70;99.90;;;;;;5086467;28;20661;-78
2023/01/08 00:46:45;;;;;;;5.25;4.75;;;10.70;99.90;;;;;;5098405;28;20245;-78
2023/01/08 00:49:25;;;;;;;5.20;4.80;;;10.70;99.90;;;;;;5086668;28;20235;-78
2023/01/08 00:51:55;;;;;;;5.25;4.50;;;10.60;99.90;;;;;;5084855;28;20224;-78
2023/01/08 00:54:24;;;;;;;7.72;4.93;;;10.60;99.90;;;;;;5096839;28;20715;-78
2023/01/08 00:56:55;;;;;;;5.88;5.28;;;10.50;99.90;;;;;;5096750;28;20306;-77
2023/01/08 00:59:24;;;;;;;5.15;4.65;;;10.50;99.90;;;;;;5084596;28;20389;-77
2023/01/08 01:01:53;;;;;;;5.32;4.60;;;10.50;99.90;;;;;;5095899;28;20219;-77
2023/01/08 01:04:22;;;;;;;4.50;4.15;;;10.50;99.90;;;;;;5088606;28;20526;-77
2023/01/08 01:06:52;;;;;;;5.00;4.60;;;10.50;99.90;;;;;;5095953;28;20219;-77
2023/01/08 01:09:19;;;;;;;4.65;4.35;;;10.40;99.90;;;;;;5096026;28;20223;-77
2023/01/08 01:11:46;;;;;;;5.70;4.85;;;10.40;99.90;;;;;;5083649;28;20241;-77
2023/01/08 01:14:18;;;;;;;5.53;5.05;;;10.40;99.90;;;;;;5095555;28;20230;-76
2023/01/08 01:16:53;;;;;;;4.72;4.22;;;10.40;99.90;;;;;;5093738;28;20234;-78
2023/01/08 01:19:22;;;;;;;4.90;4.50;;;10.40;99.90;;;;;;5083627;28;20314;-77
2023/01/08 01:21:50;;;;;;;4.95;4.55;;;10.40;99.90;;;;;;5093515;28;20227;-77
2023/01/08 01:24:23;;;;;;;5.90;4.93;;;10.30;99.90;;;;;;5095758;28;20233;-77
2023/01/08 01:26:50;;;;;;;4.47;4.18;;;10.30;99.90;;;;;;5082549;28;20234;-78
2023/01/08 01:29:26;;;;;;;5.25;4.75;;;10.30;99.90;;;;;;5084300;28;20242;-78
2023/01/08 01:31:56;;;;;;;5.60;5.10;;;10.30;99.90;;;;;;5083118;28;20249;-77
2023/01/08 01:34:23;;;;;;;6.13;5.53;;;10.30;99.90;;;;;;5092797;28;20319;-78
2023/01/08 01:36:53;;;;;;;7.15;5.47;;;10.30;99.90;;;;;;5092622;28;20288;-78
2023/01/08 01:39:22;;;;;;;5.70;5.15;;;10.30;99.90;;;;;;5093352;28;20285;-78
2023/01/08 01:41:52;;;;;;;5.50;5.00;;;10.30;99.90;;;;;;5093203;28;20222;-77
2023/01/08 01:44:39;;;;;;;5.75;5.25;;;10.30;99.90;;;;;;5092704;28;20680;-77
2023/01/08 01:47:24;;;;;;;7.05;4.95;;;10.30;99.90;;;;;;5092793;28;20223;-77
2023/01/08 01:49:55;;;;;;;5.95;5.43;;;10.20;99.90;;;;;;5082649;28;20284;-78
2023/01/08 01:52:27;;;;;;;6.28;5.70;;;10.20;99.90;;;;;;5092116;28;20648;-78
2023/01/08 01:54:57;;;;;;;6.60;5.95;;;10.10;99.90;;;;;;5093748;28;20227;-78
2023/01/08 01:57:26;;;;;;;5.03;4.53;;;10.10;99.90;;;;;;5093098;28;20633;-78
2023/01/08 02:00:03;;;;;;;5.47;4.90;;;10.10;99.90;;;;;;5082279;28;20223;-78
2023/01/08 02:02:40;;;;;;;5.13;4.63;;;10.10;99.90;;;;;;5092786;28;20211;-78
2023/01/08 02:05:08;;;;;;;6.85;6.22;;;10.00;99.90;;;;;;5082049;28;20235;-78
2023/01/08 02:07:50;;;;;;;7.70;6.13;;;10.00;99.90;;;;;;5092053;28;20294;-78
2023/01/08 02:10:22;;;;;;;7.05;6.00;;;10.00;99.90;;;;;;5092446;28;20218;-77
2023/01/08 02:12:59;;;;;;;6.18;5.50;;;10.00;99.90;;;;;;5093291;28;20243;-77
2023/01/08 02:15:43;;;;;;;5.78;5.18;;;9.90;99.90;;;;;;5078807;28;20222;-78
2023/01/08 02:18:21;;;;;;;5.82;5.32;;;9.90;99.90;;;;;;5082033;28;20262;-77
2023/01/08 02:20:54;;;;;;;5.90;5.40;;;9.90;99.90;;;;;;5090625;28;20288;-77
2023/01/08 02:23:43;;;;;;;6.38;5.70;;;9.90;99.90;;;;;;5081742;28;20235;-77
2023/01/08 02:26:24;;;;;;;7.05;5.40;;;9.90;99.90;;;;;;5093457;28;20581;-77
2023/01/08 02:29:06;;;;;;;;;;;;;;;;;;;;;
2023/01/08 02:31:38;;;;;;;6.55;5.75;;;9.80;99.90;;;;;;5092582;28;20218;-78
2023/01/08 02:34:06;;;;;;;6.75;6.15;;;9.80;99.90;;;;;;5091502;28;20235;-78
2023/01/08 02:36:38;;;;;;;6.30;5.45;;;9.80;99.90;;;;;;5092671;28;20247;-78
2023/01/08 02:39:16;;;;;;;6.80;6.25;;;9.80;99.90;;;;;;5091769;28;20227;-77
2023/01/08 02:41:57;;;;;;;5.85;5.32;;;9.80;99.90;;;;;;5090774;28;20277;-78
2023/01/08 02:44:33;;;;;;;7.85;6.25;;;9.80;99.90;;;;;;5092340;28;20223;-78
2023/01/08 02:47:02;;;;;;;6.85;6.18;;;9.70;99.90;;;;;;5092506;28;20219;-78
2023/01/08 02:49:38;;;;;;;6.13;5.63;;;9.70;99.90;;;;;;5092359;28;20250;-78
2023/01/08 02:52:07;;;;;;;9.45;4.95;;;9.70;99.90;;;;;;5092066;28;20238;-77
2023/01/08 02:57:28;;;;;;;7.88;7.18;;;9.70;99.90;;;;;;5090620;28;20601;-78
2023/01/08 02:59:57;;;;;;;7.10;6.40;;;9.70;99.90;;;;;;5087887;28;20226;-77
2023/01/08 03:02:25;;;;;;;6.88;6.35;;;9.70;99.90;;;;;;5092631;28;20644;-77
2023/01/08 03:04:58;;;;;;;7.55;6.90;;;9.70;99.90;;;;;;5083515;28;20227;-77
2023/01/08 03:07:27;;;;;;;7.22;6.35;;;9.60;99.90;;;;;;5092925;28;20243;-78
2023/01/08 03:09:55;;;;;;;7.25;6.43;;;9.60;99.90;;;;;;5082997;28;20231;-77
2023/01/08 03:12:44;;;;;;;6.60;5.97;;;9.60;99.90;;;;;;5091840;28;20683;-77
2023/01/08 03:15:16;;;;;;;7.13;6.43;;;9.60;99.90;;;;;;5091520;28;20219;-77
2023/01/08 03:17:47;;;;;;;7.68;6.88;;;9.60;99.90;;;;;;5092062;28;20228;-77
2023/01/08 03:20:17;;;;;;;8.70;6.10;;;9.60;99.90;;;;;;5081434;28;20224;-77
2023/01/08 03:22:50;;;;;;;7.38;6.78;;;9.50;99.90;;;;;;5091258;28;20245;-77
2023/01/08 03:25:20;;;;;;;7.60;6.85;;;9.60;99.90;;;;;;5092529;28;20229;-77
2023/01/08 03:27:52;;;;;;;6.85;6.25;;;9.50;99.90;;;;;;5091761;28;20668;-77
2023/01/08 03:30:22;;;;;;;6.43;5.90;;;9.50;99.90;;;;;;5092786;28;20612;-77
2023/01/08 03:32:54;;;;;;;6.28;5.68;;;9.50;99.90;;;;;;5076123;28;20228;-77
2023/01/08 03:35:24;;;;;;;7.20;6.60;;;9.50;99.90;;;;;;5096095;28;20384;-77
2023/01/08 03:37:56;;;;;;;7.30;6.50;;;9.50;99.90;;;;;;5095274;28;20224;-77
2023/01/08 03:40:27;;;;;;;7.72;6.90;;;9.50;99.90;;;;;;5095742;28;20227;-76
2023/01/08 03:42:59;;;;;;;6.05;5.55;;;9.50;99.90;;;;;;5095549;28;20219;-76
2023/01/08 03:45:29;;;;;;;7.80;7.10;;;9.50;99.90;;;;;;5095889;28;20296;-77
2023/01/08 03:47:58;;;;;;;8.65;6.25;;;9.50;99.90;;;;;;5095019;28;20329;-76
2023/01/08 03:50:30;;;;;;;7.65;6.82;;;9.50;99.90;;;;;;5096052;28;20223;-77
2023/01/08 03:53:00;;;;;;;7.30;6.68;;;9.50;99.90;;;;;;5084677;28;20223;-78
2023/01/08 03:55:28;;;;;;;7.65;6.85;;;9.50;99.90;;;;;;5094901;28;20227;-78
2023/01/08 03:57:56;;;;;;;7.10;6.50;;;9.40;99.90;;;;;;5095474;28;20310;-78
2023/01/08 04:00:30;;;;;;;7.47;6.85;;;9.40;99.90;;;;;;5095612;28;20230;-76
2023/01/08 04:02:57;;;;;;;8.45;7.53;;;9.40;99.90;;;;;;5085128;28;20295;-77
2023/01/08 04:05:24;;;;;;;7.35;6.72;;;9.40;99.90;;;;;;5094282;28;20562;-77
2023/01/08 04:07:57;;;;;;;6.88;6.38;;;9.40;99.90;;;;;;5095089;28;20318;-77
2023/01/08 04:10:26;;;;;;;6.72;6.13;;;9.40;99.90;;;;;;5095361;28;20231;-78
2023/01/08 04:12:53;;;;;;;8.32;7.63;;;9.40;99.90;;;;;;5096203;28;20281;-77
2023/01/08 04:15:22;;;;;;;7.93;7.13;;;9.40;99.90;;;;;;5097400;28;20262;-77
2023/01/08 04:17:49;;;;;;;7.45;6.85;;;9.40;99.90;;;;;;5098325;28;20227;-77
2023/01/08 04:20:16;;;;;;;7.20;6.50;;;9.40;99.90;;;;;;5097908;28;20243;-77
2023/01/08 04:22:43;;;;;;;7.60;6.90;;;9.40;99.90;;;;;;5095455;28;20246;-77
2023/01/08 04:25:11;;;;;;;7.35;6.75;;;9.40;99.90;;;;;;5095203;28;20215;-77
2023/01/08 04:27:40;;;;;;;9.07;7.10;;;9.30;99.90;;;;;;5094807;28;20403;-77
2023/01/08 04:30:08;;;;;;;7.03;6.43;;;9.30;99.90;;;;;;5094745;28;20216;-76
2023/01/08 04:32:36;;;;;;;7.65;6.93;;;9.30;99.90;;;;;;5094945;28;20681;-77
2023/01/08 04:35:04;;;;;;;7.20;6.60;;;9.30;99.90;;;;;;5085772;28;20226;-77
2023/01/08 04:37:31;;;;;;;9.75;7.30;;;9.30;99.90;;;;;;5094849;28;20273;-77
2023/01/08 04:39:58;;;;;;;6.63;6.05;;;9.30;99.90;;;;;;5094162;28;20261;-77
2023/01/08 04:42:25;;;;;;;7.65;6.85;;;9.30;99.90;;;;;;5093991;28;20219;-78
2023/01/08 04:44:53;;;;;;;7.70;7.10;;;9.20;99.90;;;;;;5094163;28;20693;-77
2023/01/08 04:47:20;;;;;;;7.40;6.68;;;9.30;99.90;;;;;;5094383;28;20680;-77
2023/01/08 04:49:55;;;;;;;9.00;7.72;;;9.30;99.90;;;;;;5093772;28;20624;-78
2023/01/08 04:52:25;;;;;;;7.57;6.88;;;9.30;99.90;;;;;;5094842;28;20302;-77
2023/01/08 04:54:51;;;;;;;7.93;7.15;;;9.30;99.90;;;;;;5083837;28;20231;-77
2023/01/08 04:57:18;;;;;;;7.20;6.45;;;9.30;99.90;;;;;;5083489;28;20234;-77
2023/01/08 04:59:45;;;;;;;7.70;7.05;;;9.30;99.90;;;;;;5081307;28;20253;-77
2023/01/08 05:02:22;;;;;;;8.07;7.40;;;9.30;99.90;;;;;;5093377;28;20691;-77
2023/01/08 05:04:49;;;;;;;8.50;6.90;;;9.30;99.90;;;;;;5093631;28;20304;-77
2023/01/08 05:07:23;;;;;;;8.43;7.68;;;9.30;99.90;;;;;;5083631;28;20349;-77
2023/01/08 05:09:50;;;;;;;9.80;8.23;;;9.30;99.90;;;;;;5092817;28;20246;-77
2023/01/08 05:12:17;;;;;;;8.05;7.25;;;9.30;99.90;;;;;;5083075;28;20243;-78
2023/01/08 05:14:45;;;;;;;8.90;7.40;;;9.30;99.90;;;;;;5093452;28;20223;-77
2023/01/08 05:17:12;;;;;;;8.63;7.85;;;9.30;99.90;;;;;;5093225;28;20219;-78
2023/01/08 05:19:39;;;;;;;7.25;6.53;;;9.30;99.90;;;;;;5093413;28;20231;-77
2023/01/08 05:22:06;;;;;;;7.80;7.05;;;9.30;99.90;;;;;;5093215;28;20717;-77
2023/01/08 05:24:34;;;;;;;7.63;6.88;;;9.30;99.90;;;;;;5093398;28;20238;-76
2023/01/08 05:27:01;;;;;;;6.90;6.32;;;9.40;99.90;;;;;;5093332;28;20521;-77
2023/01/08 05:29:28;;;;;;;7.55;6.93;;;9.40;99.90;;;;;;5093207;28;20629;-77
2023/01/08 05:31:55;;;;;;;7.15;6.53;;;9.40;99.90;;;;;;5094046;28;20345;-77
2023/01/08 05:34:23;;;;;;;9.57;7.10;;;9.40;99.90;;;;;;5093148;28;20223;-78
2023/01/08 05:36:57;;;;;;;7.20;6.57;;;9.40;99.90;;;;;;5093561;28;20219;-79
2023/01/08 05:39:24;;;;;;;6.80;6.30;;;9.40;99.90;;;;;;5092874;28;20252;-79
2023/01/08 05:41:52;;;;;;;8.05;7.25;;;9.40;99.90;;;;;;5082765;28;20243;-77
2023/01/08 05:44:21;;;;;;;7.75;7.05;;;9.40;99.90;;;;;;5091117;28;20353;-77
2023/01/08 05:46:48;;;;;;;8.07;7.28;;;9.40;99.90;;;;;;5093488;28;20272;-76
2023/01/08 05:49:15;;;;;;;7.78;7.07;;;9.40;99.90;;;;;;5092386;28;20597;-77
2023/01/08 05:51:46;;;;;;;6.90;6.20;;;9.50;99.90;;;;;;5083006;28;20243;-77
2023/01/08 05:54:15;;;;;;;7.53;6.60;;;9.50;99.90;;;;;;5092713;28;20302;-78
2023/01/08 05:56:44;;;;;;;7.25;6.60;;;9.50;99.90;;;;;;5082545;28;20226;-78
2023/01/08 05:59:13;;;;;;;6.95;6.35;;;9.50;99.90;;;;;;5081169;28;20243;-77
2023/01/08 06:01:40;;;;;;;8.13;7.47;;;9.50;99.90;;;;;;5092480;28;20306;-78
2023/01/08 06:04:07;;;;;;;6.70;6.20;;;9.50;99.90;;;;;;5093326;28;20249;-77
2023/01/08 06:06:34;;;;;;;7.95;7.22;;;9.50;99.90;;;;;;5092501;28;20239;-77
2023/01/08 06:09:04;;;;;;;8.93;8.02;;;9.60;99.90;;;;;;5093152;28;20223;-76
2023/01/08 06:11:36;;;;;;;7.50;6.78;;;9.50;99.90;;;;;;5091996;28;20238;-76
2023/01/08 06:14:03;;;;;;;7.20;6.60;;;9.50;99.90;;;;;;5081749;28;20298;-77
2023/01/08 06:16:31;;;;;;;7.20;6.60;;;9.50;99.90;;;;;;5091951;28;20227;-77
2023/01/08 06:18:58;;;;;;;7.40;6.65;;;9.50;99.90;;;;;;5092832;28;20303;-77
2023/01/08 06:21:37;;;;;;;6.78;6.13;;;9.60;99.90;;;;;;5092863;28;20280;-78
2023/01/08 06:24:05;;;;;;;6.28;5.78;;;9.60;99.90;;;;;;5093482;28;20246;-77
2023/01/08 06:26:34;;;;;;;7.07;6.38;;;9.60;99.90;;;;;;5092494;28;20242;-77
2023/01/08 06:29:01;;;;;;;6.80;6.30;;;9.70;99.90;;;;;;5092031;28;20215;-78
2023/01/08 06:31:35;;;;;;;7.60;7.00;;;9.70;99.90;;;;;;5093389;28;20219;-78
2023/01/08 06:34:08;;;;;;;6.80;6.20;;;9.70;99.90;;;;;;5093310;28;20223;-77
2023/01/08 06:36:38;;;;;;;8.02;6.72;;;9.70;99.90;;;;;;5091988;28;20215;-78
2023/01/08 06:39:06;;;;;;;7.03;6.32;;;9.70;99.90;;;;;;5092271;28;20223;-78
2023/01/08 06:41:33;;;;;;;7.85;7.15;;;9.80;99.90;;;;;;5081918;28;20225;-78
2023/01/08 06:44:00;;;;;;;7.75;7.00;;;9.80;99.90;;;;;;5091770;28;20306;-77
2023/01/08 06:46:28;;;;;;;6.28;5.68;;;9.80;99.90;;;;;;5073343;28;20227;-78
2023/01/08 06:48:56;;;;;;;7.07;6.50;;;9.80;99.90;;;;;;5092066;28;20607;-77
2023/01/08 06:51:23;;;;;;;6.47;5.88;;;9.80;99.90;;;;;;5092127;28;20314;-77
2023/01/08 06:53:52;;;;;;;6.03;5.50;;;9.80;99.90;;;;;;5092537;28;20280;-77
2023/01/08 06:56:18;;;;;;;6.55;5.95;;;9.80;99.90;;;;;;5092972;28;20219;-77
2023/01/08 06:58:46;;;;;;;7.65;6.15;;;9.80;99.90;;;;;;5092249;28;20227;-78
2023/01/08 07:01:19;;;;;;;5.82;5.32;;;9.80;99.90;;;;;;5092149;28;20632;-78
2023/01/08 07:03:46;;;;;;;6.00;5.20;;;9.90;99.90;;;;;;5091606;28;20219;-77
2023/01/08 07:06:23;;;;;;;6.55;6.03;;;9.90;99.90;;;;;;5094215;28;20247;-77
2023/01/08 07:08:50;;;;;;;5.25;4.75;;;9.90;99.90;;;;;;5096333;28;20215;-76
2023/01/08 07:11:18;;;;;;;5.53;4.97;;;9.90;99.90;;;;;;5096566;28;20223;-77
2023/01/08 07:13:45;;;;;;;6.28;5.68;;;10.00;99.90;;;;;;5095973;28;20326;-77
2023/01/08 07:16:14;;;;;;;5.95;5.45;;;10.00;99.90;;;;;;5096479;28;20219;-76
2023/01/08 07:18:44;;;;;;;5.63;5.22;;;10.10;99.90;;;;;;5086984;28;20541;-77
2023/01/08 07:21:11;;;;;;;5.80;5.30;;;10.10;99.90;;;;;;5096071;28;20223;-77
2023/01/08 07:23:44;;;;;;;5.93;5.43;;;10.10;99.90;;;;;;5095960;28;20318;-77
2023/01/08 07:26:11;;;;;;;5.32;4.80;;;10.10;99.90;;;;;;5096576;28;20583;-77
2023/01/08 07:28:38;;;;;;;6.07;5.47;;;10.10;99.90;;;;;;5095279;28;20595;-76
2023/01/08 07:31:06;;;;;;;6.95;6.35;;;10.10;99.90;;;;;;5096140;28;20215;-77
2023/01/08 07:33:33;;;;;;;5.80;5.30;;;10.10;99.90;;;;;;5096077;28;20315;-77
2023/01/08 07:36:06;;;;;;;6.50;5.50;;;10.20;99.90;;;;;;5095345;28;20219;-78
2023/01/08 07:38:33;;;;;;;5.95;5.35;;;10.10;99.90;;;;;;5085096;28;20223;-77
2023/01/08 07:41:02;;;;;;;5.70;5.20;;;10.20;99.90;;;;;;5095463;28;20234;-78
2023/01/08 07:43:29;;;;;;;6.30;5.70;;;10.20;99.90;;;;;;5095871;28;20227;-78
2023/01/08 07:45:56;;;;;;;6.32;5.72;;;10.10;99.90;;;;;;5095967;28;20223;-77
2023/01/08 07:48:23;;;;;;;6.57;5.97;;;10.10;99.90;;;;;;5095888;28;20234;-77
2023/01/08 07:50:51;;;;;;;6.10;5.60;;;10.10;99.90;;;;;;5095522;28;20613;-78
2023/01/08 07:53:18;;;;;;;4.72;4.38;;;10.10;99.90;;;;;;5094982;28;20310;-77
2023/01/08 07:55:46;;;;;;;6.45;5.85;;;10.10;99.90;;;;;;5095536;28;20231;-77
2023/01/08 07:58:16;;;;;;;4.70;4.38;;;10.10;99.90;;;;;;5095458;28;20359;-77
2023/01/08 08:00:43;;;;;;;4.75;4.35;;;10.20;99.90;;;;;;5095361;28;20285;-78
2023/01/08 08:03:11;;;;;;;6.10;5.50;;;10.20;99.90;;;;;;5094943;28;20259;-77
2023/01/08 08:05:41;;;;;;;9.48;4.90;;;10.20;99.90;;;;;;5095611;28;20223;-78
2023/01/08 08:08:12;;;;;;;5.47;4.88;;;10.20;99.90;;;;;;5086036;28;20306;-78
2023/01/08 08:10:45;;;;;;;5.93;5.43;;;10.20;99.90;;;;;;5095113;28;20227;-78
2023/01/08 08:13:14;;;;;;;6.53;5.97;;;10.20;99.90;;;;;;5093924;28;20649;-77
2023/01/08 08:15:43;;;;;;;5.88;5.38;;;10.20;99.90;;;;;;5095516;28;20234;-77
2023/01/08 08:18:10;;;;;;;8.95;8.05;;;10.20;99.90;;;;;;5093419;28;20261;-77
2023/01/08 08:20:40;;;;;;;10.07;8.23;;;10.20;99.90;;;;;;5095035;28;20231;-78
2023/01/08 08:23:09;;;;;;;8.82;7.45;;;10.20;99.90;;;;;;5094146;28;20227;-78
2023/01/08 08:25:39;;;;;;;8.55;7.65;;;10.20;99.90;;;;;;5084705;28;20607;-77
2023/01/08 08:28:08;;;;;;;8.52;7.78;;;10.30;99.90;;;;;;5094460;28;20249;-78
2023/01/08 08:30:38;;;;;;;7.43;6.70;;;10.20;99.90;;;;;;5085116;28;20235;-78
2023/01/08 08:33:07;;;;;;;7.15;6.45;;;10.20;99.90;;;;;;5095435;28;20329;-77
2023/01/08 08:35:48;;;;;;;7.20;6.00;;;10.20;99.90;;;;;;5098388;28;20225;-78
2023/01/08 08:38:20;;;;;;;6.75;6.05;;;10.20;99.90;;;;;;5099262;28;21074;-77
2023/01/08 08:40:47;;;;;;;6.20;5.70;;;10.20;99.90;;;;;;5095863;28;20254;-77
2023/01/08 08:43:14;;;;;;;6.03;5.45;;;10.20;99.90;;;;;;5094069;28;20677;-77
2023/01/08 08:45:43;;;;;;;5.60;5.10;;;10.20;99.90;;;;;;5094608;28;20280;-78
2023/01/08 08:48:14;;;;;;;5.60;5.10;;;10.20;99.90;;;;;;5081717;28;20572;-78
2023/01/08 08:50:41;;;;;;;7.85;6.68;;;10.30;99.90;;;;;;5083787;28;20223;-77
2023/01/08 08:53:11;;;;;;;5.72;5.20;;;10.30;99.90;;;;;;5083101;28;20714;-78
2023/01/08 08:55:39;;;;;;;6.05;5.47;;;10.30;99.90;;;;;;5083402;28;20661;-78
2023/01/08 08:58:09;;;;;;;6.28;5.75;;;10.30;99.90;;;;;;5093623;28;20227;-77
2023/01/08 09:00:40;;;;;;;4.82;4.43;;;10.30;99.90;;;;;;5094674;28;20224;-78
2023/01/08 09:03:16;;;;;;;6.13;5.63;;;10.30;99.90;;;;;;5094079;28;20664;-78
2023/01/08 09:05:43;;;;;;;6.15;5.60;;;10.30;99.90;;;;;;5094171;28;20310;-77
2023/01/08 09:08:11;;;;;;;6.05;5.50;;;10.20;99.90;;;;;;5094077;28;20219;-78
2023/01/08 09:10:41;;;;;;;6.15;5.57;;;10.30;99.90;;;;;;5081653;28;20748;-78
2023/01/08 09:13:11;;;;;;;6.75;6.15;;;10.30;99.90;;;;;;5093900;28;20229;-77
2023/01/08 09:15:38;;;;;;;7.45;6.32;;;10.30;99.90;;;;;;5082836;28;20314;-78
2023/01/08 09:18:06;;;;;;;6.82;6.32;;;10.30;99.90;;;;;;5093474;28;20310;-78
2023/01/08 09:20:35;;;;;;;6.82;6.03;;;10.30;99.90;;;;;;5093075;28;20310;-78
2023/01/08 09:23:05;;;;;;;5.32;4.85;;;10.30;99.90;;;;;;5093534;28;20219;-77
2023/01/08 09:25:32;;;;;;;6.90;5.88;;;10.40;99.90;;;;;;5093315;28;20231;-77
2023/01/08 09:28:04;;;;;;;6.70;6.10;;;10.40;99.90;;;;;;5080617;28;20277;-78
2023/01/08 09:30:31;;;;;;;6.28;5.68;;;10.40;99.90;;;;;;5083170;28;20225;-77
2023/01/08 09:33:09;;;;;;;;;;;;;;;;;;;;;
2023/01/08 09:35:37;;;;;;;6.18;5.60;;;10.50;99.90;;;;;;5066014;28;20284;-77
2023/01/08 09:38:08;;;;;;;6.35;5.75;;;10.50;99.90;;;;;;5093608;28;20707;-77
2023/01/08 09:40:39;;;;;;;7.47;6.00;;;10.50;99.90;;;;;;5093313;28;20230;-78
2023/01/08 09:43:10;;;;;;;11.88;10.65;;;10.50;99.90;;;;;;5092785;28;20665;-79
2023/01/08 09:45:40;;;;;;;14.43;11.48;;;10.50;99.90;;;;;;5092799;28;20229;-78
2023/01/08 09:48:13;;;;;;;11.32;10.20;;;10.50;99.90;;;;;;5083188;28;20336;-79
2023/01/08 09:50:44;;;;;;;9.80;8.40;;;10.50;99.90;;;;;;5092979;28;20227;-78
2023/01/08 09:53:16;;;;;;;11.50;7.72;;;10.50;99.90;;;;;;5092160;28;20220;-78
2023/01/08 09:55:44;;;;;;;8.55;6.90;;;10.50;99.90;;;;;;5092663;28;20216;-79
2023/01/08 09:58:24;;;;;;;8.25;7.40;;;10.60;99.90;;;;;;5093414;28;20250;-78
2023/01/08 10:00:53;;;;;;;8.35;7.25;;;10.60;99.90;;;;;;5078738;28;20346;-78
2023/01/08 10:03:23;;;;;;;8.55;7.05;;;10.60;99.90;;;;;;5093280;28;20219;-80
2023/01/08 10:05:53;;;;;;;9.73;8.30;;;10.60;99.90;;;;;;5093237;28;20280;-78
2023/01/08 10:08:29;;;;;;;13.65;10.25;;;10.60;99.90;;;;;;5092536;28;20246;-78
2023/01/08 10:11:02;;;;;;;8.90;8.10;;;10.60;99.90;;;;;;5082732;28;20257;-77
2023/01/08 10:13:35;;;;;;;6.70;6.03;;;10.50;99.90;;;;;;5092715;28;20235;-77
2023/01/08 10:16:22;;;;;;;8.13;6.28;;;10.50;99.90;;;;;;5093971;28;20304;-78
2023/01/08 10:18:54;;;;;;;6.60;5.90;;;10.50;99.90;;;;;;5093765;28;20223;-78
2023/01/08 10:21:36;;;;;;;5.30;4.72;;;10.50;99.90;;;;;;5083049;28;20605;-78
2023/01/08 10:24:04;;;;;;;7.05;5.60;;;10.50;99.90;;;;;;5091703;28;20617;-77
2023/01/08 10:26:35;;;;;;;6.03;5.30;;;10.50;99.90;;;;;;5092925;28;20222;-77
2023/01/08 10:29:16;;;;;;;5.72;5.25;;;10.50;99.90;;;;;;5092599;28;20223;-77
2023/01/08 10:31:49;;;;;;;6.50;5.65;;;10.60;99.90;;;;;;5093974;28;20234;-80
2023/01/08 10:34:26;;;;;;;5.35;4.95;;;10.50;99.90;;;;;;5094358;28;20304;-78
2023/01/08 10:36:56;;;;;;;7.65;6.78;;;10.50;99.90;;;;;;5093807;28;20234;-78
2023/01/08 10:39:26;;;;;;;7.20;6.47;;;10.50;99.90;;;;;;5092463;28;20227;-78
2023/01/08 10:41:56;;;;;;;6.10;5.13;;;10.50;99.90;;;;;;5091586;28;20542;-79
2023/01/08 10:44:25;;;;;;;6.47;5.80;;;10.50;99.90;;;;;;5092500;28;20303;-78
2023/01/08 10:46:55;;;;;;;7.25;5.75;;;10.50;99.90;;;;;;5091921;28;20230;-79
2023/01/08 10:49:30;;;;;;;5.85;5.35;;;10.50;99.90;;;;;;5092752;28;20234;-77
2023/01/08 10:52:00;;;;;;;8.20;7.00;;;10.50;99.90;;;;;;5090443;28;20246;-78
2023/01/08 10:54:35;;;;;;;9.45;7.10;;;10.40;99.90;;;;;;5084292;28;20314;-78
2023/01/08 10:57:19;;;;;;;5.60;5.05;;;10.40;99.90;;;;;;5091163;28;20234;-78
2023/01/08 10:59:48;;;;;;;10.77;7.10;;;10.50;99.90;;;;;;5092411;28;20738;-78
2023/01/08 11:02:34;;;;;;;8.73;7.07;;;10.50;99.90;;;;;;5092208;28;20211;-78
2023/01/08 11:05:03;;;;;;;10.88;8.07;;;10.50;99.90;;;;;;5091411;28;20219;-79
2023/01/08 11:07:41;;;;;;;9.02;6.43;;;10.50;99.90;;;;;;5092994;28;20223;-78
2023/01/08 11:10:26;;;;;;;6.45;5.90;;;10.50;99.90;;;;;;5092155;28;20544;-77
2023/01/08 11:12:59;;;;;;;7.47;6.78;;;10.50;99.90;;;;;;5091695;28;20298;-77
2023/01/08 11:15:33;;;;;;;10.15;9.10;;;10.50;99.90;;;;;;5082292;28;20292;-78
2023/01/08 11:18:18;;;;;;;9.90;8.25;;;10.50;99.90;;;;;;5110911;28;20242;-77
2023/01/08 11:20:51;;;;;;;8.38;7.57;;;10.40;99.90;;;;;;5112926;28;20238;-79
2023/01/08 11:23:27;;;;;;;9.55;8.65;;;10.50;99.90;;;;;;5112251;28;20271;-77
2023/01/08 11:26:05;;;;;;;8.23;7.07;;;10.50;99.90;;;;;;5113027;28;20218;-78
2023/01/08 11:28:49;;;;;;;8.48;7.68;;;10.60;99.90;;;;;;5093842;28;20227;-79
2023/01/08 11:31:25;;;;;;;6.78;6.18;;;10.60;99.90;;;;;;5106340;28;20219;-78
2023/01/08 11:33:57;;;;;;;6.72;6.13;;;10.60;99.90;;;;;;5112553;28;20292;-77
2023/01/08 11:36:32;;;;;;;5.75;5.22;;;10.70;99.90;;;;;;5102865;28;20231;-77
2023/01/08 11:39:09;;;;;;;6.50;5.90;;;10.70;99.90;;;;;;5111857;28;20318;-77
2023/01/08 11:41:54;;;;;;;7.20;6.22;;;10.70;99.90;;;;;;5101802;28;20234;-78
2023/01/08 11:44:36;;;;;;;7.53;6.90;;;10.70;99.90;;;;;;5112973;28;20672;-77
2023/01/08 11:47:14;;;;;;;6.25;5.60;;;10.70;99.90;;;;;;5112479;28;20293;-79
2023/01/08 11:50:03;;;;;;;8.70;7.80;;;10.70;99.90;;;;;;5112370;28;20226;-78
2023/01/08 11:52:47;;;;;;;7.40;5.15;;;10.60;99.90;;;;;;5114421;28;20314;-78
2023/01/08 11:55:37;;;;;;;6.38;5.88;;;10.70;99.90;;;;;;5116146;28;20222;-78
2023/01/08 11:58:21;;;;;;;5.85;5.35;;;10.60;99.90;;;;;;5115966;28;20293;-78
2023/01/08 12:01:10;;;;;;;6.00;5.38;;;10.60;99.90;;;;;;5116748;28;20222;-78
2023/01/08 12:03:45;;;;;;;7.65;6.82;;;10.70;99.90;;;;;;5119067;28;20276;-78
2023/01/08 12:06:46;;;;;;;6.88;5.70;;;10.70;99.90;;;;;;5100004;28;20214;-78
2023/01/08 12:09:32;;;;;;;7.10;6.05;;;10.70;99.90;;;;;;5073540;28;20661;-78
2023/01/08 12:12:08;;;;;;;6.13;5.53;;;10.70;99.90;;;;;;5101802;28;20227;-77
2023/01/08 12:14:47;;;;;;;6.20;5.60;;;10.80;99.90;;;;;;5090745;28;20259;-77
2023/01/08 12:17:38;;;;;;;5.80;5.25;;;10.80;99.90;;;;;;5099213;28;20242;-76
2023/01/08 12:20:31;;;;;;;5.63;5.13;;;10.90;99.90;;;;;;5093258;28;20224;-77
2023/01/08 12:23:11;;;;;;;7.00;6.40;;;10.90;99.90;;;;;;5086714;28;20246;-78
2023/01/08 12:26:04;;;;;;;6.57;5.88;;;10.80;99.90;;;;;;5112196;28;20218;-78
2023/01/08 12:28:53;;;;;;;6.20;5.70;;;10.90;99.90;;;;;;5113363;28;20651;-78
2023/01/08 12:31:42;;;;;;;6.82;6.22;;;10.90;99.90;;;;;;5114815;28;20223;-77
2023/01/08 12:34:15;;;;;;;9.15;7.05;;;10.90;99.90;;;;;;5114711;28;20246;-78
2023/01/08 12:36:47;;;;;;;6.38;5.47;;;10.90;99.90;;;;;;5115032;28;20516;-77
2023/01/08 12:39:22;;;;;;;6.05;5.45;;;10.90;99.90;;;;;;5105009;28;20229;-78
2023/01/08 12:42:16;;;;;;;6.72;5.55;;;10.90;99.90;;;;;;5115539;28;20620;-77
2023/01/08 12:44:49;;;;;;;6.20;5.60;;;11.00;99.90;;;;;;5108818;28;20250;-78
2023/01/08 12:47:21;;;;;;;13.43;10.93;;;11.00;99.90;;;;;;5115258;28;20218;-77
2023/01/08 12:49:59;;;;;;;11.50;9.80;;;11.10;99.90;;;;;;5115056;28;20226;-78
2023/01/08 12:52:35;;;;;;;9.80;8.80;;;11.10;99.90;;;;;;5093510;28;20265;-78
2023/01/08 12:55:13;;;;;;;11.27;10.05;;;11.10;99.90;;;;;;5093293;28;20287;-77
2023/01/08 12:57:55;;;;;;;12.30;10.52;;;11.10;99.90;;;;;;5093909;28;20254;-77
2023/01/08 13:00:35;;;;;;;9.25;8.35;;;11.20;99.90;;;;;;5086106;28;20283;-78
2023/01/08 13:03:06;;;;;;;8.85;7.95;;;11.10;99.90;;;;;;5094058;28;20215;-78
2023/01/08 13:05:35;;;;;;;9.40;8.38;;;11.10;99.90;;;;;;5093970;28;20234;-78
2023/01/08 13:08:09;;;;;;;8.35;7.65;;;11.10;99.90;;;;;;5096393;28;20238;-78
2023/01/08 13:10:48;;;;;;;7.57;6.97;;;11.10;99.90;;;;;;5107802;28;20219;-77
2023/01/08 13:13:40;;;;;;;7.78;7.07;;;11.10;99.90;;;;;;5106818;28;20276;-78
2023/01/08 13:16:24;;;;;;;7.80;7.10;;;11.10;99.90;;;;;;5092631;28;20685;-78
2023/01/08 13:18:54;;;;;;;6.78;6.15;;;11.20;99.90;;;;;;5106675;28;20219;-77
2023/01/08 13:21:31;;;;;;;7.50;6.63;;;11.20;99.90;;;;;;5110229;28;20249;-78
2023/01/08 13:24:25;;;;;;;6.88;6.28;;;11.10;99.90;;;;;;5111208;28;20223;-78